sensor_id;sensor_type;location;lat;lon;timestamp;temperature;humidity
292;DHT22;23311;48.776;9.162;2023-08-20T00:01:06;22.90;95.50
292;DHT22;23311;48.776;9.162;2023-08-20T00:03:37;22.80;95.50
292;DHT22;23311;48.776;9.162;2023-08-20T00:06:06;22.90;95.50
292;DHT22;23311;48.776;9.162;2023-08-20T00:08:35;23.00;95.50
292;DHT22;23311;48.776;9.162;2023-08-20T00:11:03;23.00;95.50
292;DHT22;23311;48.776;9.162;2023-08-20T00:13:32;23.10;95.50
292;DHT22;23311;48.776;9.162;2023-08-20T00:16:01;23.20;95.50
292;DHT22;23311;48.776;9.162;2023-08-20T00:18:32;23.30;95.50
292;DHT22;23311;48.776;9.162;2023-08-20T00:21:04;23.30;95.50
292;DHT22;23311;48.776;9.162;2023-08-20T00:23:33;23.40;95.50
292;DHT22;23311;48.776;9.162;2023-08-20T00:26:01;23.40;95.50
292;DHT22;23311;48.776;9.162;2023-08-20T00:28:30;23.50;95.50
292;DHT22;23311;48.776;9.162;2023-08-20T00:31:00;23.40;95.50
292;DHT22;23311;48.776;9.162;2023-08-20T00:33:30;23.40;95.50
292;DHT22;23311;48.776;9.162;2023-08-20T00:35:58;23.40;95.50
292;DHT22;23311;48.776;9.162;2023-08-20T00:38:26;23.30;95.50
292;DHT22;23311;48.776;9.162;2023-08-20T00:40:54;23.40;95.50
292;DHT22;23311;48.776;9.162;2023-08-20T00:43:23;23.30;95.50
292;DHT22;23311;48.776;9.162;2023-08-20T00:45:51;23.30;95.50
292;DHT22;23311;48.776;9.162;2023-08-20T00:48:19;23.20;95.50
292;DHT22;23311;48.776;9.162;2023-08-20T00:50:48;23.10;95.50
292;DHT22;23311;48.776;9.162;2023-08-20T00:53:17;23.00;95.50
292;DHT22;23311;48.776;9.162;2023-08-20T00:55:45;22.90;95.50
292;DHT22;23311;48.776;9.162;2023-08-20T00:58:14;23.00;95.50
292;DHT22;23311;48.776;9.162;2023-08-20T01:00:42;23.00;95.50
292;DHT22;23311;48.776;9.162;2023-08-20T01:03:10;23.00;95.50
292;DHT22;23311;48.776;9.162;2023-08-20T01:05:43;23.00;95.50
292;DHT22;23311;48.776;9.162;2023-08-20T01:08:25;22.90;95.50
292;DHT22;23311;48.776;9.162;2023-08-20T01:11:00;22.80;95.50
292;DHT22;23311;48.776;9.162;2023-08-20T01:13:29;22.80;95.50
292;DHT22;23311;48.776;9.162;2023-08-20T01:15:57;22.70;95.50
292;DHT22;23311;48.776;9.162;2023-08-20T01:18:25;22.70;95.50
292;DHT22;23311;48.776;9.162;2023-08-20T01:20:58;22.70;95.50
292;DHT22;23311;48.776;9.162;2023-08-20T01:24:00;22.70;95.50
292;DHT22;23311;48.776;9.162;2023-08-20T01:26:47;22.70;95.50
292;DHT22;23311;48.776;9.162;2023-08-20T01:29:18;22.70;95.50
292;DHT22;23311;48.776;9.162;2023-08-20T01:31:47;22.60;95.50
292;DHT22;23311;48.776;9.162;2023-08-20T01:34:15;22.60;95.50
292;DHT22;23311;48.776;9.162;2023-08-20T01:36:44;22.60;95.50
292;DHT22;23311;48.776;9.162;2023-08-20T01:39:12;22.60;95.50
292;DHT22;23311;48.776;9.162;2023-08-20T01:41:41;22.70;95.50
292;DHT22;23311;48.776;9.162;2023-08-20T01:44:09;22.70;95.50
292;DHT22;23311;48.776;9.162;2023-08-20T01:46:38;22.60;95.50
292;DHT22;23311;48.776;9.162;2023-08-20T01:49:06;22.60;95.50
292;DHT22;23311;48.776;9.162;2023-08-20T01:51:34;22.60;95.50
292;DHT22;23311;48.776;9.162;2023-08-20T01:54:04;22.50;95.50
292;DHT22;23311;48.776;9.162;2023-08-20T01:56:32;22.40;95.50
292;DHT22;23311;48.776;9.162;2023-08-20T01:59:00;22.30;95.50
292;DHT22;23311;48.776;9.162;2023-08-20T02:01:28;22.20;95.50
292;DHT22;23311;48.776;9.162;2023-08-20T02:03:58;22.10;95.50
292;DHT22;23311;48.776;9.162;2023-08-20T02:06:26;22.10;95.50
292;DHT22;23311;48.776;9.162;2023-08-20T02:08:54;22.10;95.50
292;DHT22;23311;48.776;9.162;2023-08-20T02:11:23;22.10;95.50
292;DHT22;23311;48.776;9.162;2023-08-20T02:13:51;22.00;95.50
292;DHT22;23311;48.776;9.162;2023-08-20T02:16:19;21.90;95.50
292;DHT22;23311;48.776;9.162;2023-08-20T02:18:47;21.80;95.50
292;DHT22;23311;48.776;9.162;2023-08-20T02:21:17;21.80;95.50
292;DHT22;23311;48.776;9.162;2023-08-20T02:23:45;21.80;95.50
292;DHT22;23311;48.776;9.162;2023-08-20T02:26:13;21.80;95.50
292;DHT22;23311;48.776;9.162;2023-08-20T02:28:41;21.80;95.50
292;DHT22;23311;48.776;9.162;2023-08-20T02:31:10;21.80;95.50
292;DHT22;23311;48.776;9.162;2023-08-20T02:33:38;21.90;95.50
292;DHT22;23311;48.776;9.162;2023-08-20T02:36:06;21.90;95.50
292;DHT22;23311;48.776;9.162;2023-08-20T02:38:35;21.90;95.50
292;DHT22;23311;48.776;9.162;2023-08-20T02:41:03;21.90;95.50
292;DHT22;23311;48.776;9.162;2023-08-20T02:43:32;21.90;95.50
292;DHT22;23311;48.776;9.162;2023-08-20T02:46:00;21.90;95.50
292;DHT22;23311;48.776;9.162;2023-08-20T02:48:29;21.90;95.50
292;DHT22;23311;48.776;9.162;2023-08-20T02:50:57;21.90;95.50
292;DHT22;23311;48.776;9.162;2023-08-20T02:53:25;21.80;95.50
292;DHT22;23311;48.776;9.162;2023-08-20T02:55:55;21.80;95.50
292;DHT22;23311;48.776;9.162;2023-08-20T02:58:23;21.70;95.50
292;DHT22;23311;48.776;9.162;2023-08-20T03:00:51;21.60;95.50
292;DHT22;23311;48.776;9.162;2023-08-20T03:03:19;21.60;95.50
292;DHT22;23311;48.776;9.162;2023-08-20T03:05:47;21.60;95.50
292;DHT22;23311;48.776;9.162;2023-08-20T03:08:16;21.60;95.50
292;DHT22;23311;48.776;9.162;2023-08-20T03:10:44;21.60;95.50
292;DHT22;23311;48.776;9.162;2023-08-20T03:13:13;21.60;95.50
292;DHT22;23311;48.776;9.162;2023-08-20T03:15:41;21.60;95.50
292;DHT22;23311;48.776;9.162;2023-08-20T03:18:10;21.70;95.50
292;DHT22;23311;48.776;9.162;2023-08-20T03:20:38;21.70;95.50
292;DHT22;23311;48.776;9.162;2023-08-20T03:23:06;21.70;95.50
292;DHT22;23311;48.776;9.162;2023-08-20T03:25:34;21.60;95.50
292;DHT22;23311;48.776;9.162;2023-08-20T03:28:02;21.60;95.50
292;DHT22;23311;48.776;9.162;2023-08-20T03:30:32;21.70;95.50
292;DHT22;23311;48.776;9.162;2023-08-20T03:33:00;21.70;95.50
292;DHT22;23311;48.776;9.162;2023-08-20T03:35:28;21.70;95.50
292;DHT22;23311;48.776;9.162;2023-08-20T03:37:56;21.60;95.50
292;DHT22;23311;48.776;9.162;2023-08-20T03:40:24;21.60;95.50
292;DHT22;23311;48.776;9.162;2023-08-20T03:42:52;21.60;95.50
292;DHT22;23311;48.776;9.162;2023-08-20T03:45:21;21.60;95.50
292;DHT22;23311;48.776;9.162;2023-08-20T03:47:50;21.50;95.50
292;DHT22;23311;48.776;9.162;2023-08-20T03:50:19;21.50;95.50
292;DHT22;23311;48.776;9.162;2023-08-20T03:52:47;21.50;95.50
292;DHT22;23311;48.776;9.162;2023-08-20T03:55:15;21.50;95.50
292;DHT22;23311;48.776;9.162;2023-08-20T03:57:43;21.50;95.50
292;DHT22;23311;48.776;9.162;2023-08-20T04:00:12;21.50;95.50
292;DHT22;23311;48.776;9.162;2023-08-20T04:02:40;21.40;95.50
292;DHT22;23311;48.776;9.162;2023-08-20T04:05:10;21.30;95.50
292;DHT22;23311;48.776;9.162;2023-08-20T04:07:38;21.30;95.50
292;DHT22;23311;48.776;9.162;2023-08-20T04:10:08;21.20;95.50
292;DHT22;23311;48.776;9.162;2023-08-20T04:12:36;21.10;95.50
292;DHT22;23311;48.776;9.162;2023-08-20T04:15:05;21.10;95.50
292;DHT22;23311;48.776;9.162;2023-08-20T04:17:33;21.10;95.50
292;DHT22;23311;48.776;9.162;2023-08-20T04:20:02;21.10;95.50
292;DHT22;23311;48.776;9.162;2023-08-20T04:22:35;21.10;95.50
292;DHT22;23311;48.776;9.162;2023-08-20T04:25:05;21.10;95.50
292;DHT22;23311;48.776;9.162;2023-08-20T04:27:33;21.10;95.50
292;DHT22;23311;48.776;9.162;2023-08-20T04:30:02;21.20;95.50
292;DHT22;23311;48.776;9.162;2023-08-20T04:32:30;21.10;95.50
292;DHT22;23311;48.776;9.162;2023-08-20T04:34:58;21.10;95.50
292;DHT22;23311;48.776;9.162;2023-08-20T04:37:27;21.10;95.50
292;DHT22;23311;48.776;9.162;2023-08-20T04:39:56;21.10;95.50
292;DHT22;23311;48.776;9.162;2023-08-20T04:42:24;21.20;95.50
292;DHT22;23311;48.776;9.162;2023-08-20T04:44:52;21.20;95.50
292;DHT22;23311;48.776;9.162;2023-08-20T04:47:20;21.20;95.50
292;DHT22;23311;48.776;9.162;2023-08-20T04:49:49;21.20;95.50
292;DHT22;23311;48.776;9.162;2023-08-20T04:52:17;21.20;95.50
292;DHT22;23311;48.776;9.162;2023-08-20T04:54:46;21.20;95.50
292;DHT22;23311;48.776;9.162;2023-08-20T04:57:15;21.30;95.50
292;DHT22;23311;48.776;9.162;2023-08-20T04:59:43;21.40;95.50
292;DHT22;23311;48.776;9.162;2023-08-20T05:02:12;21.40;95.50
292;DHT22;23311;48.776;9.162;2023-08-20T05:04:40;21.40;95.50
292;DHT22;23311;48.776;9.162;2023-08-20T05:07:09;21.50;95.50
292;DHT22;23311;48.776;9.162;2023-08-20T05:09:37;21.50;95.50
292;DHT22;23311;48.776;9.162;2023-08-20T05:12:05;21.60;95.50
292;DHT22;23311;48.776;9.162;2023-08-20T05:14:35;21.70;95.50
292;DHT22;23311;48.776;9.162;2023-08-20T05:17:03;22.10;95.50
292;DHT22;23311;48.776;9.162;2023-08-20T05:19:32;22.20;95.50
292;DHT22;23311;48.776;9.162;2023-08-20T05:22:00;22.30;95.50
292;DHT22;23311;48.776;9.162;2023-08-20T05:24:28;22.40;95.50
292;DHT22;23311;48.776;9.162;2023-08-20T05:27:07;22.50;95.50
292;DHT22;23311;48.776;9.162;2023-08-20T05:29:37;22.50;95.50
292;DHT22;23311;48.776;9.162;2023-08-20T05:32:06;22.50;95.50
292;DHT22;23311;48.776;9.162;2023-08-20T05:34:34;22.50;95.50
292;DHT22;23311;48.776;9.162;2023-08-20T05:37:03;22.50;95.50
292;DHT22;23311;48.776;9.162;2023-08-20T05:39:36;22.60;95.50
292;DHT22;23311;48.776;9.162;2023-08-20T05:42:04;22.70;95.50
292;DHT22;23311;48.776;9.162;2023-08-20T05:44:33;22.80;95.50
292;DHT22;23311;48.776;9.162;2023-08-20T05:47:02;22.90;95.50
292;DHT22;23311;48.776;9.162;2023-08-20T05:49:32;23.00;95.50
292;DHT22;23311;48.776;9.162;2023-08-20T05:52:00;23.10;95.50
292;DHT22;23311;48.776;9.162;2023-08-20T05:54:29;23.20;95.50
292;DHT22;23311;48.776;9.162;2023-08-20T05:56:58;23.30;95.50
292;DHT22;23311;48.776;9.162;2023-08-20T05:59:26;23.40;95.50
292;DHT22;23311;48.776;9.162;2023-08-20T06:01:54;23.50;95.50
292;DHT22;23311;48.776;9.162;2023-08-20T06:04:24;23.70;95.50
292;DHT22;23311;48.776;9.162;2023-08-20T06:06:52;23.90;95.50
292;DHT22;23311;48.776;9.162;2023-08-20T06:09:20;24.10;95.50
292;DHT22;23311;48.776;9.162;2023-08-20T06:11:48;24.30;95.50
292;DHT22;23311;48.776;9.162;2023-08-20T06:14:16;24.60;95.50
292;DHT22;23311;48.776;9.162;2023-08-20T06:16:44;24.90;95.50
292;DHT22;23311;48.776;9.162;2023-08-20T06:19:12;25.20;95.50
292;DHT22;23311;48.776;9.162;2023-08-20T06:21:41;25.50;95.50
292;DHT22;23311;48.776;9.162;2023-08-20T06:24:10;25.80;95.50
292;DHT22;23311;48.776;9.162;2023-08-20T06:26:38;26.10;95.50
292;DHT22;23311;48.776;9.162;2023-08-20T06:29:06;26.30;95.50
292;DHT22;23311;48.776;9.162;2023-08-20T06:31:34;26.50;95.50
292;DHT22;23311;48.776;9.162;2023-08-20T06:34:03;26.80;95.50
292;DHT22;23311;48.776;9.162;2023-08-20T06:36:31;26.80;95.50
292;DHT22;23311;48.776;9.162;2023-08-20T06:39:00;26.30;95.50
292;DHT22;23311;48.776;9.162;2023-08-20T06:41:28;26.40;95.50
292;DHT22;23311;48.776;9.162;2023-08-20T06:43:56;26.40;95.50
292;DHT22;23311;48.776;9.162;2023-08-20T06:46:24;26.50;95.50
292;DHT22;23311;48.776;9.162;2023-08-20T06:48:53;26.70;95.50
292;DHT22;23311;48.776;9.162;2023-08-20T06:51:21;27.10;95.50
292;DHT22;23311;48.776;9.162;2023-08-20T06:53:49;28.50;95.50
292;DHT22;23311;48.776;9.162;2023-08-20T06:56:19;29.90;95.50
292;DHT22;23311;48.776;9.162;2023-08-20T06:58:47;31.00;94.90
292;DHT22;23311;48.776;9.162;2023-08-20T07:01:15;32.00;92.10
292;DHT22;23311;48.776;9.162;2023-08-20T07:03:44;32.10;90.70
292;DHT22;23311;48.776;9.162;2023-08-20T07:06:12;32.50;90.10
292;DHT22;23311;48.776;9.162;2023-08-20T07:08:43;32.60;89.00
292;DHT22;23311;48.776;9.162;2023-08-20T07:11:11;31.90;90.40
292;DHT22;23311;48.776;9.162;2023-08-20T07:13:40;32.30;90.10
292;DHT22;23311;48.776;9.162;2023-08-20T07:16:09;32.30;89.30
292;DHT22;23311;48.776;9.162;2023-08-20T07:18:37;31.50;91.10
292;DHT22;23311;48.776;9.162;2023-08-20T07:21:05;31.30;91.40
292;DHT22;23311;48.776;9.162;2023-08-20T07:23:34;31.40;91.30
292;DHT22;23311;48.776;9.162;2023-08-20T07:26:06;30.90;93.10
292;DHT22;23311;48.776;9.162;2023-08-20T07:28:35;32.00;91.00
292;DHT22;23311;48.776;9.162;2023-08-20T07:31:22;33.40;87.10
292;DHT22;23311;48.776;9.162;2023-08-20T07:33:51;34.20;85.00
292;DHT22;23311;48.776;9.162;2023-08-20T07:36:20;34.50;84.20
292;DHT22;23311;48.776;9.162;2023-08-20T07:38:50;34.80;82.90
292;DHT22;23311;48.776;9.162;2023-08-20T07:41:18;35.30;81.70
292;DHT22;23311;48.776;9.162;2023-08-20T07:43:48;34.60;82.90
292;DHT22;23311;48.776;9.162;2023-08-20T07:46:16;33.70;85.30
292;DHT22;23311;48.776;9.162;2023-08-20T07:48:46;34.00;85.10
292;DHT22;23311;48.776;9.162;2023-08-20T07:51:14;34.10;84.70
292;DHT22;23311;48.776;9.162;2023-08-20T07:53:42;34.40;83.90
292;DHT22;23311;48.776;9.162;2023-08-20T07:56:10;34.40;84.00
292;DHT22;23311;48.776;9.162;2023-08-20T07:58:38;34.30;84.10
292;DHT22;23311;48.776;9.162;2023-08-20T08:01:06;33.80;85.00
292;DHT22;23311;48.776;9.162;2023-08-20T08:03:35;32.80;87.40
292;DHT22;23311;48.776;9.162;2023-08-20T08:06:12;32.60;88.30
292;DHT22;23311;48.776;9.162;2023-08-20T08:08:43;33.30;87.00
292;DHT22;23311;48.776;9.162;2023-08-20T08:11:11;34.20;84.50
292;DHT22;23311;48.776;9.162;2023-08-20T08:13:40;35.40;81.80
292;DHT22;23311;48.776;9.162;2023-08-20T08:16:08;35.70;80.50
292;DHT22;23311;48.776;9.162;2023-08-20T08:18:36;35.40;81.10
292;DHT22;23311;48.776;9.162;2023-08-20T08:21:04;35.10;81.60
292;DHT22;23311;48.776;9.162;2023-08-20T08:23:34;34.30;82.90
292;DHT22;23311;48.776;9.162;2023-08-20T08:26:05;34.40;83.20
292;DHT22;23311;48.776;9.162;2023-08-20T08:28:35;33.70;83.80
292;DHT22;23311;48.776;9.162;2023-08-20T08:31:03;34.20;82.90
292;DHT22;23311;48.776;9.162;2023-08-20T08:33:34;35.30;80.40
292;DHT22;23311;48.776;9.162;2023-08-20T08:36:02;34.90;81.00
292;DHT22;23311;48.776;9.162;2023-08-20T08:38:30;34.80;81.30
292;DHT22;23311;48.776;9.162;2023-08-20T08:41:01;35.70;79.10
292;DHT22;23311;48.776;9.162;2023-08-20T08:43:32;35.90;78.50
292;DHT22;23311;48.776;9.162;2023-08-20T08:46:01;36.00;78.10
292;DHT22;23311;48.776;9.162;2023-08-20T08:48:30;34.80;81.40
292;DHT22;23311;48.776;9.162;2023-08-20T08:50:59;35.90;78.60
292;DHT22;23311;48.776;9.162;2023-08-20T08:53:30;36.00;78.30
292;DHT22;23311;48.776;9.162;2023-08-20T08:56:00;36.90;76.60
292;DHT22;23311;48.776;9.162;2023-08-20T08:58:29;36.90;76.80
292;DHT22;23311;48.776;9.162;2023-08-20T09:00:57;37.60;75.40
292;DHT22;23311;48.776;9.162;2023-08-20T09:03:25;36.60;77.20
292;DHT22;23311;48.776;9.162;2023-08-20T09:05:56;35.90;77.90
292;DHT22;23311;48.776;9.162;2023-08-20T09:08:27;35.60;79.40
292;DHT22;23311;48.776;9.162;2023-08-20T09:10:56;36.10;78.90
292;DHT22;23311;48.776;9.162;2023-08-20T09:13:32;36.40;77.90
292;DHT22;23311;48.776;9.162;2023-08-20T09:16:03;35.60;78.90
292;DHT22;23311;48.776;9.162;2023-08-20T09:18:33;36.10;78.60
292;DHT22;23311;48.776;9.162;2023-08-20T09:21:06;36.60;77.00
292;DHT22;23311;48.776;9.162;2023-08-20T09:23:35;35.60;78.50
292;DHT22;23311;48.776;9.162;2023-08-20T09:26:05;35.10;80.00
292;DHT22;23311;48.776;9.162;2023-08-20T09:28:43;35.50;78.90
292;DHT22;23311;48.776;9.162;2023-08-20T09:31:11;36.30;77.60
292;DHT22;23311;48.776;9.162;2023-08-20T09:33:49;36.70;76.10
292;DHT22;23311;48.776;9.162;2023-08-20T09:36:18;36.50;76.40
292;DHT22;23311;48.776;9.162;2023-08-20T09:38:48;37.00;75.20
292;DHT22;23311;48.776;9.162;2023-08-20T09:41:19;36.00;76.80
292;DHT22;23311;48.776;9.162;2023-08-20T09:43:48;36.00;77.70
292;DHT22;23311;48.776;9.162;2023-08-20T09:46:24;35.50;78.40
292;DHT22;23311;48.776;9.162;2023-08-20T09:48:56;36.50;76.60
292;DHT22;23311;48.776;9.162;2023-08-20T09:51:25;37.00;75.60
292;DHT22;23311;48.776;9.162;2023-08-20T09:54:02;37.00;75.40
292;DHT22;23311;48.776;9.162;2023-08-20T09:56:31;36.80;75.90
292;DHT22;23311;48.776;9.162;2023-08-20T09:59:06;36.80;75.60
292;DHT22;23311;48.776;9.162;2023-08-20T10:01:44;37.20;74.60
292;DHT22;23311;48.776;9.162;2023-08-20T10:04:15;38.00;72.60
292;DHT22;23311;48.776;9.162;2023-08-20T10:06:46;38.60;71.10
292;DHT22;23311;48.776;9.162;2023-08-20T10:09:16;37.90;71.60
292;DHT22;23311;48.776;9.162;2023-08-20T10:11:45;38.20;71.20
292;DHT22;23311;48.776;9.162;2023-08-20T10:14:14;37.50;71.90
292;DHT22;23311;48.776;9.162;2023-08-20T10:16:43;37.50;71.80
292;DHT22;23311;48.776;9.162;2023-08-20T10:19:12;37.80;71.50
292;DHT22;23311;48.776;9.162;2023-08-20T10:21:44;38.10;70.40
292;DHT22;23311;48.776;9.162;2023-08-20T10:24:16;38.40;70.00
292;DHT22;23311;48.776;9.162;2023-08-20T10:26:46;38.00;70.30
292;DHT22;23311;48.776;9.162;2023-08-20T10:29:38;36.60;72.80
292;DHT22;23311;48.776;9.162;2023-08-20T10:32:08;37.90;71.90
292;DHT22;23311;48.776;9.162;2023-08-20T10:34:38;38.00;71.40
292;DHT22;23311;48.776;9.162;2023-08-20T10:37:10;38.70;70.60
292;DHT22;23311;48.776;9.162;2023-08-20T10:39:39;38.90;69.10
292;DHT22;23311;48.776;9.162;2023-08-20T10:42:21;38.10;69.90
292;DHT22;23311;48.776;9.162;2023-08-20T10:45:09;37.60;71.40
292;DHT22;23311;48.776;9.162;2023-08-20T10:47:42;38.00;71.20
292;DHT22;23311;48.776;9.162;2023-08-20T10:50:12;37.80;71.50
292;DHT22;23311;48.776;9.162;2023-08-20T10:52:47;36.80;73.20
292;DHT22;23311;48.776;9.162;2023-08-20T10:55:22;36.80;73.60
292;DHT22;23311;48.776;9.162;2023-08-20T10:57:55;37.30;72.60
292;DHT22;23311;48.776;9.162;2023-08-20T11:00:25;37.40;71.00
292;DHT22;23311;48.776;9.162;2023-08-20T11:02:55;36.90;71.20
292;DHT22;23311;48.776;9.162;2023-08-20T11:05:24;36.90;71.50
292;DHT22;23311;48.776;9.162;2023-08-20T11:07:53;38.10;69.80
292;DHT22;23311;48.776;9.162;2023-08-20T11:10:21;38.20;69.80
292;DHT22;23311;48.776;9.162;2023-08-20T11:12:49;38.10;69.40
292;DHT22;23311;48.776;9.162;2023-08-20T11:15:17;37.10;71.00
292;DHT22;23311;48.776;9.162;2023-08-20T11:17:49;37.30;71.20
292;DHT22;23311;48.776;9.162;2023-08-20T11:20:17;37.10;70.90
292;DHT22;23311;48.776;9.162;2023-08-20T11:22:46;36.90;70.90
292;DHT22;23311;48.776;9.162;2023-08-20T11:25:14;37.10;70.70
292;DHT22;23311;48.776;9.162;2023-08-20T11:27:42;37.20;70.90
292;DHT22;23311;48.776;9.162;2023-08-20T11:30:11;37.00;71.40
292;DHT22;23311;48.776;9.162;2023-08-20T11:32:40;36.70;71.70
292;DHT22;23311;48.776;9.162;2023-08-20T11:35:12;36.40;72.50
292;DHT22;23311;48.776;9.162;2023-08-20T11:37:40;36.70;71.60
292;DHT22;23311;48.776;9.162;2023-08-20T11:43:19;35.60;73.80
292;DHT22;23311;48.776;9.162;2023-08-20T11:45:48;35.80;72.90
292;DHT22;23311;48.776;9.162;2023-08-20T11:48:17;36.10;72.30
292;DHT22;23311;48.776;9.162;2023-08-20T11:50:47;36.30;71.80
292;DHT22;23311;48.776;9.162;2023-08-20T11:53:15;36.40;71.70
292;DHT22;23311;48.776;9.162;2023-08-20T11:55:48;36.80;70.90
292;DHT22;23311;48.776;9.162;2023-08-20T11:58:18;37.20;69.90
292;DHT22;23311;48.776;9.162;2023-08-20T12:00:49;37.00;70.80
292;DHT22;23311;48.776;9.162;2023-08-20T12:03:18;37.70;69.70
292;DHT22;23311;48.776;9.162;2023-08-20T12:05:49;37.60;69.40
292;DHT22;23311;48.776;9.162;2023-08-20T12:08:17;37.50;69.90
292;DHT22;23311;48.776;9.162;2023-08-20T12:10:45;37.30;69.70
292;DHT22;23311;48.776;9.162;2023-08-20T12:13:13;37.30;69.80
292;DHT22;23311;48.776;9.162;2023-08-20T12:15:41;37.20;69.90
292;DHT22;23311;48.776;9.162;2023-08-20T12:18:09;37.80;69.50
292;DHT22;23311;48.776;9.162;2023-08-20T12:20:37;37.40;69.30
292;DHT22;23311;48.776;9.162;2023-08-20T12:23:07;36.70;70.30
292;DHT22;23311;48.776;9.162;2023-08-20T12:25:35;36.10;71.30
292;DHT22;23311;48.776;9.162;2023-08-20T12:28:04;37.10;70.00
292;DHT22;23311;48.776;9.162;2023-08-20T12:30:34;37.70;69.10
292;DHT22;23311;48.776;9.162;2023-08-20T12:33:05;38.00;68.50
292;DHT22;23311;48.776;9.162;2023-08-20T12:35:35;37.40;69.40
292;DHT22;23311;48.776;9.162;2023-08-20T12:38:03;37.50;69.30
292;DHT22;23311;48.776;9.162;2023-08-20T12:40:33;37.50;69.20
292;DHT22;23311;48.776;9.162;2023-08-20T12:43:01;37.70;68.40
292;DHT22;23311;48.776;9.162;2023-08-20T12:45:30;37.00;69.50
292;DHT22;23311;48.776;9.162;2023-08-20T12:47:58;36.80;69.80
292;DHT22;23311;48.776;9.162;2023-08-20T12:50:28;37.00;69.40
292;DHT22;23311;48.776;9.162;2023-08-20T12:52:56;36.70;70.00
292;DHT22;23311;48.776;9.162;2023-08-20T12:55:26;37.20;69.10
292;DHT22;23311;48.776;9.162;2023-08-20T12:57:56;37.40;68.40
292;DHT22;23311;48.776;9.162;2023-08-20T13:00:26;37.80;67.20
292;DHT22;23311;48.776;9.162;2023-08-20T13:02:55;38.20;67.00
292;DHT22;23311;48.776;9.162;2023-08-20T13:05:24;38.10;67.10
292;DHT22;23311;48.776;9.162;2023-08-20T13:07:53;38.30;66.50
292;DHT22;23311;48.776;9.162;2023-08-20T13:10:22;38.00;67.00
292;DHT22;23311;48.776;9.162;2023-08-20T13:12:52;37.50;68.40
292;DHT22;23311;48.776;9.162;2023-08-20T13:15:23;38.20;66.90
292;DHT22;23311;48.776;9.162;2023-08-20T13:17:53;38.50;66.50
292;DHT22;23311;48.776;9.162;2023-08-20T13:20:21;38.20;66.40
292;DHT22;23311;48.776;9.162;2023-08-20T13:22:51;37.70;66.90
292;DHT22;23311;48.776;9.162;2023-08-20T13:25:20;37.70;67.10
292;DHT22;23311;48.776;9.162;2023-08-20T13:27:49;38.10;66.70
292;DHT22;23311;48.776;9.162;2023-08-20T13:30:17;38.10;66.90
292;DHT22;23311;48.776;9.162;2023-08-20T13:32:48;38.00;66.90
292;DHT22;23311;48.776;9.162;2023-08-20T13:35:16;37.50;67.70
292;DHT22;23311;48.776;9.162;2023-08-20T13:37:45;37.90;67.20
292;DHT22;23311;48.776;9.162;2023-08-20T13:40:13;38.20;66.60
292;DHT22;23311;48.776;9.162;2023-08-20T13:42:42;37.90;67.00
292;DHT22;23311;48.776;9.162;2023-08-20T13:45:10;37.70;67.60
292;DHT22;23311;48.776;9.162;2023-08-20T13:47:38;37.40;68.90
292;DHT22;23311;48.776;9.162;2023-08-20T13:50:08;37.20;69.20
292;DHT22;23311;48.776;9.162;2023-08-20T13:52:37;37.10;69.50
292;DHT22;23311;48.776;9.162;2023-08-20T13:55:06;37.00;69.60
292;DHT22;23311;48.776;9.162;2023-08-20T13:57:34;37.40;68.80
292;DHT22;23311;48.776;9.162;2023-08-20T14:00:04;37.90;67.90
292;DHT22;23311;48.776;9.162;2023-08-20T14:02:35;37.80;68.00
292;DHT22;23311;48.776;9.162;2023-08-20T14:05:04;37.50;68.60
292;DHT22;23311;48.776;9.162;2023-08-20T14:07:34;37.50;69.10
292;DHT22;23311;48.776;9.162;2023-08-20T14:10:02;37.20;69.30
292;DHT22;23311;48.776;9.162;2023-08-20T14:12:31;36.80;70.30
292;DHT22;23311;48.776;9.162;2023-08-20T14:14:59;37.00;70.10
292;DHT22;23311;48.776;9.162;2023-08-20T14:17:28;37.10;70.10
292;DHT22;23311;48.776;9.162;2023-08-20T14:19:57;37.40;69.80
292;DHT22;23311;48.776;9.162;2023-08-20T14:22:25;37.40;69.60
292;DHT22;23311;48.776;9.162;2023-08-20T14:24:55;36.80;70.40
292;DHT22;23311;48.776;9.162;2023-08-20T14:27:23;37.20;69.70
292;DHT22;23311;48.776;9.162;2023-08-20T14:29:51;37.00;70.00
292;DHT22;23311;48.776;9.162;2023-08-20T14:32:19;37.00;70.00
292;DHT22;23311;48.776;9.162;2023-08-20T14:34:47;36.60;70.30
292;DHT22;23311;48.776;9.162;2023-08-20T14:37:15;35.40;72.40
292;DHT22;23311;48.776;9.162;2023-08-20T14:39:43;34.80;74.20
292;DHT22;23311;48.776;9.162;2023-08-20T14:42:13;34.80;74.20
292;DHT22;23311;48.776;9.162;2023-08-20T14:44:41;34.80;74.20
292;DHT22;23311;48.776;9.162;2023-08-20T14:47:09;35.20;73.10
292;DHT22;23311;48.776;9.162;2023-08-20T14:49:37;35.20;73.10
292;DHT22;23311;48.776;9.162;2023-08-20T14:52:06;34.60;73.60
292;DHT22;23311;48.776;9.162;2023-08-20T14:54:45;34.30;74.50
292;DHT22;23311;48.776;9.162;2023-08-20T14:57:15;34.20;74.60
292;DHT22;23311;48.776;9.162;2023-08-20T14:59:44;34.30;74.40
292;DHT22;23311;48.776;9.162;2023-08-20T15:02:12;34.20;74.70
292;DHT22;23311;48.776;9.162;2023-08-20T15:04:41;34.20;74.60
292;DHT22;23311;48.776;9.162;2023-08-20T15:07:09;34.00;74.80
292;DHT22;23311;48.776;9.162;2023-08-20T15:09:37;34.00;74.70
292;DHT22;23311;48.776;9.162;2023-08-20T15:12:06;33.70;75.40
292;DHT22;23311;48.776;9.162;2023-08-20T15:14:35;33.80;75.30
292;DHT22;23311;48.776;9.162;2023-08-20T15:17:04;34.10;75.10
292;DHT22;23311;48.776;9.162;2023-08-20T15:19:32;34.40;74.30
292;DHT22;23311;48.776;9.162;2023-08-20T15:22:00;34.80;73.40
292;DHT22;23311;48.776;9.162;2023-08-20T15:24:30;34.60;73.10
292;DHT22;23311;48.776;9.162;2023-08-20T15:26:59;34.30;73.30
292;DHT22;23311;48.776;9.162;2023-08-20T15:29:27;33.90;74.30
292;DHT22;23311;48.776;9.162;2023-08-20T15:31:56;33.60;75.10
292;DHT22;23311;48.776;9.162;2023-08-20T15:34:24;33.60;75.10
292;DHT22;23311;48.776;9.162;2023-08-20T15:36:53;33.60;74.90
292;DHT22;23311;48.776;9.162;2023-08-20T15:39:21;33.40;74.70
292;DHT22;23311;48.776;9.162;2023-08-20T15:41:50;34.00;73.70
292;DHT22;23311;48.776;9.162;2023-08-20T15:44:19;34.20;73.00
292;DHT22;23311;48.776;9.162;2023-08-20T15:46:47;34.10;73.20
292;DHT22;23311;48.776;9.162;2023-08-20T15:49:16;33.90;73.90
292;DHT22;23311;48.776;9.162;2023-08-20T15:51:45;34.00;74.10
292;DHT22;23311;48.776;9.162;2023-08-20T15:54:13;34.20;73.70
292;DHT22;23311;48.776;9.162;2023-08-20T15:56:41;34.50;72.90
292;DHT22;23311;48.776;9.162;2023-08-20T15:59:09;34.90;72.60
292;DHT22;23311;48.776;9.162;2023-08-20T16:01:37;35.30;72.20
292;DHT22;23311;48.776;9.162;2023-08-20T16:04:06;35.70;71.20
292;DHT22;23311;48.776;9.162;2023-08-20T16:06:36;35.70;71.20
292;DHT22;23311;48.776;9.162;2023-08-20T16:09:04;35.70;71.10
292;DHT22;23311;48.776;9.162;2023-08-20T16:11:33;35.60;70.90
292;DHT22;23311;48.776;9.162;2023-08-20T16:14:01;35.30;71.80
292;DHT22;23311;48.776;9.162;2023-08-20T16:16:29;35.80;70.20
292;DHT22;23311;48.776;9.162;2023-08-20T16:18:58;36.30;69.80